Time;durP1;ratioP1;P1;durP2;ratioP2;P2;SDS_P1;SDS_P2;PMS_P1;PMS_P2;Temp;Humidity;BMP_temperature;BMP_pressure;BME280_temperature;BME280_humidity;BME280_pressure;Samples;Min_cycle;Max_cycle;Signal;HPM_P1;HPM_P2
2022/03/31 00:00:42;;;;;;;46.85;18.85;;;;;;;8.83;87.29;94468.06;5106527;28;20517;-74
2022/03/31 00:03:10;;;;;;;43.15;16.85;;;;;;;8.88;86.88;94464.28;5105944;28;20048;-74
2022/03/31 00:05:39;;;;;;;41.47;17.10;;;;;;;8.87;86.47;94462.69;5106757;28;20094;-74
2022/03/31 00:08:07;;;;;;;47.10;18.38;;;;;;;8.74;86.73;94453.09;5106019;28;20055;-74
2022/03/31 00:10:35;;;;;;;52.13;19.33;;;;;;;8.78;86.83;94459.41;5105645;28;20509;-74
2022/03/31 00:13:04;;;;;;;43.28;18.08;;;;;;;8.85;86.52;94459.56;5106292;28;20051;-74
2022/03/31 00:15:31;;;;;;;41.08;16.88;;;;;;;8.90;86.46;94459.28;5109431;28;20096;-74
2022/03/31 00:17:59;;;;;;;48.65;18.58;;;;;;;8.94;86.48;94452.03;5110537;28;20059;-74
2022/03/31 00:20:26;;;;;;;44.50;19.08;;;;;;;8.85;86.26;94460.34;5108826;28;20080;-73
2022/03/31 00:23:00;;;;;;;47.45;19.02;;;;;;;8.91;86.07;94451.94;5110260;28;20055;-76
2022/03/31 00:25:27;;;;;;;42.40;18.52;;;;;;;8.92;85.50;94446.13;5109218;28;20060;-73
2022/03/31 00:27:56;;;;;;;49.15;18.70;;;;;;;8.89;85.80;94449.56;5110068;28;20148;-74
2022/03/31 00:30:22;;;;;;;40.13;18.25;;;;;;;8.94;85.67;94451.22;5109143;28;20740;-74
2022/03/31 00:32:49;;;;;;;49.33;19.45;;;;;;;8.99;85.33;94443.59;5109374;28;20431;-74
2022/03/31 00:35:15;;;;;;;38.90;17.70;;;;;;;9.04;85.14;94440.63;5109964;28;20599;-73
2022/03/31 00:37:43;;;;;;;44.92;18.30;;;;;;;9.10;84.84;94443.84;5109452;28;20056;-73
2022/03/31 00:40:15;;;;;;;43.75;18.35;;;;;;;9.11;85.00;94435.31;5109000;28;20043;-73
2022/03/31 00:42:43;;;;;;;44.72;18.38;;;;;;;9.14;84.56;94433.84;5109045;28;20044;-73
2022/03/31 00:45:14;;;;;;;42.60;18.20;;;;;;;9.13;85.10;94430.34;5109300;28;20049;-74
2022/03/31 00:47:41;;;;;;;45.25;17.98;;;;;;;9.19;84.96;94425.41;5109024;28;20134;-73
2022/03/31 00:50:08;;;;;;;46.90;18.90;;;;;;;9.22;84.80;94421.97;5108859;28;20799;-76
2022/03/31 00:52:35;;;;;;;47.08;19.48;;;;;;;9.07;84.48;94423.59;5109315;28;20127;-73
2022/03/31 00:55:01;;;;;;;47.05;19.92;;;;;;;8.97;85.19;94423.38;5108974;28;20055;-73
2022/03/31 00:57:30;;;;;;;44.13;19.98;;;;;;;8.92;85.24;94415.50;5109254;28;20043;-73
2022/03/31 00:59:58;;;;;;;52.63;21.42;;;;;;;8.90;85.81;94413.16;5108707;28;20426;-73
2022/03/31 01:02:30;;;;;;;45.88;19.80;;;;;;;9.01;85.44;94410.66;5109235;28;20127;-73
2022/03/31 01:05:00;;;;;;;43.75;20.15;;;;;;;9.01;85.28;94408.72;5108808;28;20055;-74
2022/03/31 01:07:26;;;;;;;52.55;20.73;;;;;;;9.04;85.39;94401.81;5108815;27;20134;-74
2022/03/31 01:09:53;;;;;;;47.85;20.98;;;;;;;9.05;85.06;94404.16;5108568;28;20070;-73
2022/03/31 01:12:20;;;;;;;51.65;20.58;;;;;;;9.00;85.35;94399.03;5108122;28;20047;-74
2022/03/31 01:14:48;;;;;;;43.00;20.58;;;;;;;9.04;85.07;94396.38;5109124;28;20054;-73
2022/03/31 01:17:14;;;;;;;51.33;21.33;;;;;;;9.00;85.55;94382.72;5107793;28;20056;-73
2022/03/31 01:19:41;;;;;;;46.00;21.80;;;;;;;9.03;85.34;94382.03;5108365;28;20044;-73
2022/03/31 01:22:07;;;;;;;58.08;23.65;;;;;;;9.08;85.06;94384.47;5107070;28;20051;-73
2022/03/31 01:24:36;;;;;;;54.70;23.35;;;;;;;9.09;84.29;94367.03;5108324;28;20492;-73
2022/03/31 01:27:02;;;;;;;46.88;23.25;;;;;;;9.04;84.32;94367.31;5107090;28;20051;-73
2022/03/31 01:29:29;;;;;;;65.35;26.23;;;;;;;9.02;84.05;94366.88;5108297;28;20060;-73
2022/03/31 01:31:57;;;;;;;43.78;22.15;;;;;;;9.01;84.05;94365.28;5107810;28;20058;-73
2022/03/31 01:34:24;;;;;;;61.28;24.40;;;;;;;9.02;84.01;94356.00;5107647;28;20058;-73
2022/03/31 01:36:50;;;;;;;53.90;24.48;;;;;;;9.01;83.79;94356.38;5108170;28;20112;-73
2022/03/31 01:39:17;;;;;;;60.60;26.63;;;;;;;9.00;83.80;94361.00;5107324;28;20096;-73
2022/03/31 01:41:45;;;;;;;55.25;25.55;;;;;;;8.97;83.38;94364.44;5107949;28;20082;-73
2022/03/31 01:44:11;;;;;;;60.58;25.42;;;;;;;8.94;83.61;94357.00;5107321;28;20051;-73
2022/03/31 01:46:38;;;;;;;56.90;25.38;;;;;;;8.88;83.74;94350.28;5108858;28;20055;-74
2022/03/31 01:49:04;;;;;;;55.90;25.08;;;;;;;8.82;83.68;94352.50;5107252;28;20082;-74
2022/03/31 01:51:31;;;;;;;58.50;26.02;;;;;;;8.79;83.95;94349.72;5108814;28;20051;-73
2022/03/31 01:53:57;;;;;;;62.80;26.52;;;;;;;8.73;83.80;94351.13;5107578;28;20047;-73
2022/03/31 01:56:24;;;;;;;58.78;26.85;;;;;;;8.65;83.52;94344.75;5108077;28;20055;-75
2022/03/31 01:58:51;;;;;;;55.60;25.52;;;;;;;8.58;83.71;94348.09;5107553;28;20055;-73
2022/03/31 02:01:18;;;;;;;64.82;27.45;;;;;;;8.54;83.87;94344.50;5107212;28;20529;-73
2022/03/31 02:03:44;;;;;;;58.08;27.88;;;;;;;8.55;83.99;94340.66;5107928;28;20101;-74
2022/03/31 02:06:11;;;;;;;61.28;28.25;;;;;;;8.46;84.02;94334.66;5106742;28;20051;-73
2022/03/31 02:08:37;;;;;;;62.05;28.17;;;;;;;8.36;84.74;94337.91;5108571;28;20066;-74
2022/03/31 02:11:04;;;;;;;59.05;27.38;;;;;;;8.21;85.36;94328.63;5106414;28;20056;-74
2022/03/31 02:13:30;;;;;;;58.67;27.60;;;;;;;8.26;85.48;94325.66;5108540;28;20059;-73
2022/03/31 02:15:58;;;;;;;63.25;29.98;;;;;;;8.28;85.48;94328.78;5107516;28;20052;-73
2022/03/31 02:18:25;;;;;;;65.35;29.20;;;;;;;8.34;85.56;94329.31;5107320;28;20055;-74
2022/03/31 02:20:51;;;;;;;58.80;27.70;;;;;;;8.40;85.58;94329.84;5106803;28;20187;-73
2022/03/31 02:23:18;;;;;;;63.90;28.95;;;;;;;8.40;85.22;94322.50;5106517;28;20854;-73
2022/03/31 02:25:45;;;;;;;60.08;27.52;;;;;;;8.35;85.77;94328.16;5107148;28;20158;-75
2022/03/31 02:28:12;;;;;;;62.55;27.67;;;;;;;8.33;85.75;94322.31;5106571;28;20063;-73
2022/03/31 02:30:39;;;;;;;65.47;29.10;;;;;;;8.29;85.75;94324.16;5107917;28;20055;-73
2022/03/31 02:33:07;;;;;;;64.35;28.95;;;;;;;8.30;85.67;94331.13;5106362;28;20059;-73
2022/03/31 02:35:34;;;;;;;67.95;28.42;;;;;;;8.28;85.67;94320.66;5108050;28;20047;-73
2022/03/31 02:38:01;;;;;;;65.50;29.15;;;;;;;8.27;85.77;94312.88;5106199;28;20055;-76
2022/03/31 02:40:28;;;;;;;74.20;29.60;;;;;;;8.28;86.19;94314.44;5107067;28;20060;-73
2022/03/31 02:42:54;;;;;;;61.33;27.83;;;;;;;8.37;85.37;94304.22;5106948;28;20108;-73
2022/03/31 02:45:21;;;;;;;67.07;28.73;;;;;;;8.45;85.35;94305.94;5106792;28;20138;-73
2022/03/31 02:47:48;;;;;;;69.18;29.75;;;;;;;8.46;84.83;94306.75;5107180;28;20055;-73
2022/03/31 02:50:17;;;;;;;68.25;29.63;;;;;;;8.42;84.97;94308.59;5106160;28;20044;-73
2022/03/31 02:55:30;;;;;;;72.03;30.13;;;;;;;8.51;84.76;94304.53;5106301;28;20646;-73
2022/03/31 02:58:01;;;;;;;73.97;30.10;;;;;;;8.55;84.59;94299.19;5107664;28;20048;-73
2022/03/31 03:00:30;;;;;;;67.43;29.67;;;;;;;8.60;84.17;94301.63;5106115;28;20801;-73
2022/03/31 03:02:57;;;;;;;72.20;31.45;;;;;;;8.65;84.14;94289.69;5107155;28;20383;-74
2022/03/31 03:05:25;;;;;;;64.90;29.67;;;;;;;8.68;84.00;94283.56;5105968;28;21737;-73
2022/03/31 03:07:52;;;;;;;67.72;29.52;;;;;;;8.61;83.31;94289.63;5106882;28;20051;-74
2022/03/31 03:10:18;;;;;;;75.05;30.80;;;;;;;8.60;83.41;94291.53;5106404;28;20055;-73
2022/03/31 03:12:45;;;;;;;68.10;30.20;;;;;;;8.65;83.49;94287.00;5106340;28;20055;-74
2022/03/31 03:15:12;;;;;;;62.63;28.85;;;;;;;8.69;83.39;94280.50;5106843;28;20051;-74
2022/03/31 03:17:42;;;;;;;70.10;30.60;;;;;;;8.71;83.35;94270.06;5106397;28;20073;-73
2022/03/31 03:20:13;;;;;;;66.40;29.25;;;;;;;8.70;83.17;94273.91;5106742;28;20139;-73
2022/03/31 03:22:42;;;;;;;63.00;29.33;;;;;;;8.70;83.29;94273.91;5106028;28;20617;-73
2022/03/31 03:25:09;;;;;;;69.13;29.50;;;;;;;8.71;83.19;94275.50;5106819;28;20608;-73
2022/03/31 03:27:35;;;;;;;61.65;28.13;;;;;;;8.72;82.88;94282.50;5106632;28;20062;-73
2022/03/31 03:30:02;;;;;;;62.17;27.73;;;;;;;8.75;82.40;94276.34;5106143;28;20047;-73
2022/03/31 03:32:28;;;;;;;66.85;30.55;;;;;;;8.75;82.50;94270.16;5106409;28;20056;-74
2022/03/31 03:34:55;;;;;;;70.25;30.13;;;;;;;8.75;82.38;94276.34;5106510;28;20439;-73
2022/03/31 03:37:21;;;;;;;62.40;28.08;;;;;;;8.78;81.96;94274.88;5106727;28;20051;-73
2022/03/31 03:39:49;;;;;;;99.70;34.33;;;;;;;8.81;81.92;94274.13;5101012;28;20523;-74
2022/03/31 03:42:15;;;;;;;58.85;27.67;;;;;;;8.79;81.98;94271.00;5103546;28;20134;-73
2022/03/31 03:44:42;;;;;;;65.30;29.50;;;;;;;8.75;82.02;94264.72;5105973;28;20051;-73
2022/03/31 03:47:08;;;;;;;67.22;28.60;;;;;;;8.74;81.98;94268.59;5101896;28;20115;-74
2022/03/31 03:49:35;;;;;;;64.63;29.67;;;;;;;8.74;82.15;94265.88;5110002;28;20410;-73
2022/03/31 03:52:01;;;;;;;68.50;29.17;;;;;;;8.73;81.84;94256.16;5110262;28;20051;-74
2022/03/31 03:54:28;;;;;;;58.80;27.52;;;;;;;8.75;82.12;94257.34;5110166;28;20783;-74
2022/03/31 03:56:56;;;;;;;72.25;30.33;;;;;;;8.77;81.73;94257.00;5110363;28;20074;-73
2022/03/31 03:59:22;;;;;;;64.05;28.73;;;;;;;8.80;81.94;94259.00;5110163;28;20059;-74
2022/03/31 04:01:49;;;;;;;74.28;30.27;;;;;;;8.82;81.47;94260.22;5109510;28;20080;-73
2022/03/31 04:04:15;;;;;;;63.22;28.10;;;;;;;8.80;81.52;94257.06;5110440;28;20070;-73
2022/03/31 04:06:42;;;;;;;61.33;29.63;;;;;;;8.77;81.77;94262.41;5109976;28;20612;-74
2022/03/31 04:09:09;;;;;;;67.28;29.25;;;;;;;8.70;81.67;94262.28;5110404;28;20088;-74
2022/03/31 04:11:35;;;;;;;70.85;30.10;;;;;;;8.57;82.36;94265.16;5109299;28;20494;-73
2022/03/31 04:14:03;;;;;;;66.60;29.17;;;;;;;8.42;82.39;94263.28;5110071;28;20051;-74
2022/03/31 04:16:30;;;;;;;69.68;30.77;;;;;;;8.35;83.08;94257.66;5110281;27;20142;-73
2022/03/31 04:18:56;;;;;;;74.32;30.15;;;;;;;8.26;83.68;94267.94;5110311;28;20047;-73
2022/03/31 04:21:23;;;;;;;68.05;29.88;;;;;;;8.28;83.50;94262.94;5108871;28;20055;-73
2022/03/31 04:23:49;;;;;;;73.35;30.95;;;;;;;8.33;83.25;94262.66;5109708;28;20052;-74
2022/03/31 04:26:16;;;;;;;68.38;30.13;;;;;;;8.26;83.34;94254.38;5110099;28;20066;-73
2022/03/31 04:28:42;;;;;;;76.22;32.35;;;;;;;8.25;83.90;94252.81;5109381;28;20105;-73
2022/03/31 04:31:10;;;;;;;70.93;30.67;;;;;;;8.22;83.53;94254.28;5109350;28;20055;-75
2022/03/31 04:33:36;;;;;;;71.63;30.75;;;;;;;8.16;83.53;94252.22;5109378;28;20043;-75
2022/03/31 04:36:03;;;;;;;75.97;30.45;;;;;;;8.21;83.75;94251.94;5109774;28;20059;-73
2022/03/31 04:38:29;;;;;;;75.68;30.35;;;;;;;8.26;83.96;94249.72;5109396;28;20743;-73
2022/03/31 04:40:56;;;;;;;70.60;29.80;;;;;;;8.28;83.82;94246.66;5109654;28;20055;-73
2022/03/31 04:43:22;;;;;;;57.10;27.98;;;;;;;8.13;84.33;94242.06;5108902;28;20051;-73
2022/03/31 04:45:49;;;;;;;75.97;30.02;;;;;;;8.17;84.36;94245.63;5109532;28;20055;-73
2022/03/31 04:48:17;;;;;;;70.93;31.70;;;;;;;8.21;84.03;94249.22;5109946;27;20093;-73
2022/03/31 04:50:43;;;;;;;75.32;30.30;;;;;;;8.14;84.41;94251.75;5108832;28;20055;-75
2022/03/31 04:53:11;;;;;;;70.38;30.23;;;;;;;8.24;84.05;94253.91;5109108;28;20059;-73
2022/03/31 04:55:38;;;;;;;70.75;31.13;;;;;;;8.27;84.12;94253.22;5109005;28;20071;-76
2022/03/31 04:58:04;;;;;;;76.13;31.67;;;;;;;8.31;84.16;94254.09;5109382;28;20048;-73
2022/03/31 05:00:31;;;;;;;72.75;31.35;;;;;;;8.37;84.21;94250.00;5108207;28;20051;-74
2022/03/31 05:02:59;;;;;;;77.32;30.98;;;;;;;8.43;83.68;94254.00;5109519;28;20403;-73
2022/03/31 05:05:27;;;;;;;75.68;31.40;;;;;;;8.41;83.56;94250.84;5108890;28;20520;-73
2022/03/31 05:07:53;;;;;;;81.68;32.92;;;;;;;8.42;83.57;94252.41;5108873;28;20145;-73
2022/03/31 05:10:20;;;;;;;72.30;31.40;;;;;;;8.41;83.35;94250.06;5108828;28;20052;-75
2022/03/31 05:12:46;;;;;;;76.85;31.65;;;;;;;8.44;82.89;94250.13;5108614;28;20058;-74
2022/03/31 05:15:13;;;;;;;69.55;29.75;;;;;;;8.44;82.69;94250.13;5108748;28;20054;-76
2022/03/31 05:17:40;;;;;;;66.57;30.63;;;;;;;8.43;82.44;94248.56;5108908;27;20044;-74
2022/03/31 05:20:09;;;;;;;79.60;30.40;;;;;;;8.42;82.22;94257.06;5108970;28;20068;-74
2022/03/31 05:22:38;;;;;;;73.68;30.33;;;;;;;8.42;82.23;94249.72;5108114;28;20059;-75
2022/03/31 05:25:07;;;;;;;81.47;31.30;;;;;;;8.46;82.49;94253.28;5108383;28;20459;-77
2022/03/31 05:27:33;;;;;;;72.25;31.13;;;;;;;8.50;82.36;94247.91;5108561;28;20143;-74
2022/03/31 05:30:00;;;;;;;74.45;31.77;;;;;;;8.54;82.69;94252.28;5108403;28;20063;-74
2022/03/31 05:32:26;;;;;;;71.10;30.50;;;;;;;8.50;82.79;94243.28;5108659;28;20060;-74
2022/03/31 05:34:53;;;;;;;81.05;33.55;;;;;;;8.52;82.71;94241.00;5108227;28;20070;-74
2022/03/31 05:37:21;;;;;;;73.15;29.70;;;;;;;8.55;82.62;94234.06;5108542;28;20054;-74
2022/03/31 05:39:48;;;;;;;80.50;29.55;;;;;;;8.55;82.58;94243.00;5107447;28;20116;-76
2022/03/31 05:42:15;;;;;;;69.90;28.85;;;;;;;8.54;82.17;94237.94;5108684;28;20051;-74
2022/03/31 05:44:41;;;;;;;68.82;28.75;;;;;;;8.55;82.04;94234.06;5108173;28;20074;-73
2022/03/31 05:47:08;;;;;;;68.47;30.10;;;;;;;8.58;81.93;94239.59;5107779;28;20046;-78
2022/03/31 05:49:34;;;;;;;74.10;30.50;;;;;;;8.57;81.52;94238.03;5107615;28;20051;-75
2022/03/31 05:52:01;;;;;;;73.03;30.50;;;;;;;8.48;81.40;94234.72;5108242;28;20074;-75
2022/03/31 05:54:28;;;;;;;73.53;31.70;;;;;;;8.42;81.62;94238.09;5107580;28;20062;-75
2022/03/31 05:56:56;;;;;;;71.93;30.25;;;;;;;8.39;81.69;94238.78;5108086;28;20067;-74
2022/03/31 05:59:22;;;;;;;72.45;30.27;;;;;;;8.41;82.04;94237.28;5107955;28;20047;-74
2022/03/31 06:01:49;;;;;;;71.85;30.90;;;;;;;8.46;82.04;94237.00;5107138;28;20056;-77
2022/03/31 06:04:19;;;;;;;63.75;28.40;;;;;;;8.52;82.04;94238.31;5107807;28;20051;-73
2022/03/31 06:06:46;;;;;;;72.03;30.02;;;;;;;8.58;81.48;94244.22;5107412;28;20043;-74
2022/03/31 06:09:14;;;;;;;85.35;34.08;;;;;;;8.62;81.92;94245.88;5107589;28;20086;-74
2022/03/31 06:11:40;;;;;;;74.97;30.63;;;;;;;8.62;81.89;94243.16;5106399;28;20054;-74
2022/03/31 06:14:08;;;;;;;79.68;32.15;;;;;;;8.66;81.58;94245.16;5107658;28;20083;-76
2022/03/31 06:16:35;;;;;;;65.18;30.05;;;;;;;8.67;81.44;94246.75;5107973;27;20051;-73
2022/03/31 06:19:01;;;;;;;72.38;30.33;;;;;;;8.70;81.35;94243.28;5107682;28;20074;-74
2022/03/31 06:21:28;;;;;;;68.57;30.20;;;;;;;8.71;81.42;94245.63;5107754;28;20047;-74
2022/03/31 06:23:54;;;;;;;71.57;29.10;;;;;;;8.69;80.76;94247.94;5107138;28;20058;-73
2022/03/31 06:26:21;;;;;;;72.43;30.42;;;;;;;8.71;80.51;94244.84;5107394;28;20052;-74
2022/03/31 06:28:47;;;;;;;67.47;28.58;;;;;;;8.71;80.67;94247.56;5107037;28;20056;-74
2022/03/31 06:31:15;;;;;;;61.38;27.25;;;;;;;8.68;80.07;94251.03;5107223;28;20058;-73
2022/03/31 06:33:42;;;;;;;55.95;25.90;;;;;;;8.71;80.13;94244.84;5106855;28;20047;-73
2022/03/31 06:36:08;;;;;;;66.90;29.52;;;;;;;8.74;79.96;94241.44;5107417;28;20043;-75
2022/03/31 06:38:35;;;;;;;58.03;27.40;;;;;;;8.76;80.05;94244.56;5107089;28;20040;-75
2022/03/31 06:41:10;;;;;;;70.18;27.90;;;;;;;8.77;80.22;94240.72;5107510;28;20047;-75
2022/03/31 06:43:38;;;;;;;76.38;29.92;;;;;;;8.71;80.49;94234.78;5107167;28;20100;-76
2022/03/31 06:46:05;;;;;;;75.97;30.15;;;;;;;8.68;80.60;94240.16;5106135;28;20046;-76
2022/03/31 06:48:36;;;;;;;68.63;28.50;;;;;;;8.71;80.67;94244.84;5108266;27;20132;-73
2022/03/31 06:51:03;;;;;;;78.63;32.70;;;;;;;8.76;80.91;94233.72;5106199;28;20055;-74
2022/03/31 06:53:30;;;;;;;78.03;30.73;;;;;;;8.78;80.71;94226.03;5107468;28;20510;-74
2022/03/31 06:55:56;;;;;;;73.25;30.13;;;;;;;8.82;80.96;94227.66;5106602;28;20058;-74
2022/03/31 06:58:27;;;;;;;74.82;30.48;;;;;;;8.86;80.86;94233.16;5106933;28;20043;-74
2022/03/31 07:00:54;;;;;;;70.97;30.45;;;;;;;8.88;81.02;94230.88;5106462;28;20043;-75
2022/03/31 07:03:20;;;;;;;69.53;30.55;;;;;;;8.93;81.01;94227.88;5106187;28;20847;-74
2022/03/31 07:05:48;;;;;;;69.55;30.75;;;;;;;8.87;81.41;94232.81;5105957;28;20509;-74
2022/03/31 07:08:14;;;;;;;64.70;28.17;;;;;;;8.91;81.22;94227.44;5105932;28;20051;-74
2022/03/31 07:10:41;;;;;;;73.00;31.23;;;;;;;8.95;80.99;94220.16;5106965;28;20055;-73
2022/03/31 07:13:08;;;;;;;71.47;31.65;;;;;;;9.00;81.00;94213.63;5106160;28;20549;-74
2022/03/31 07:15:34;;;;;;;74.47;31.58;;;;;;;9.05;80.82;94214.13;5107452;28;20051;-74
2022/03/31 07:18:03;;;;;;;71.60;31.60;;;;;;;9.08;81.15;94207.19;5107275;28;20055;-74
2022/03/31 07:20:29;;;;;;;71.18;32.17;;;;;;;9.13;81.28;94207.69;5106858;28;20043;-74
2022/03/31 07:22:58;;;;;;;70.13;29.73;;;;;;;9.13;81.21;94199.56;5108156;28;20044;-74
2022/03/31 07:25:24;;;;;;;73.13;32.35;;;;;;;9.23;81.07;94205.50;5111044;28;20044;-75
2022/03/31 07:27:51;;;;;;;68.60;29.67;;;;;;;9.34;81.33;94209.19;5111689;28;20052;-75
2022/03/31 07:30:19;;;;;;;70.72;29.50;;;;;;;9.41;81.18;94214.75;5109883;28;20508;-76
2022/03/31 07:32:50;;;;;;;65.53;28.58;;;;;;;9.53;80.99;94211.06;5111272;28;20581;-73
2022/03/31 07:35:17;;;;;;;73.20;30.77;;;;;;;9.62;80.35;94204.25;5110321;28;20059;-73
2022/03/31 07:37:43;;;;;;;64.55;28.63;;;;;;;9.72;79.89;94215.66;5111216;28;20053;-74
2022/03/31 07:40:12;;;;;;;68.03;30.00;;;;;;;9.71;79.51;94211.34;5109576;28;20062;-73
2022/03/31 07:42:39;;;;;;;66.28;28.70;;;;;;;9.63;79.13;94213.97;5111378;28;20055;-73
2022/03/31 07:45:07;;;;;;;74.68;29.52;;;;;;;9.66;78.51;94215.97;5108214;27;20043;-73
2022/03/31 07:47:33;;;;;;;73.80;28.58;;;;;;;9.66;78.53;94215.97;5109837;28;20052;-73
2022/03/31 07:50:00;;;;;;;72.57;29.58;;;;;;;9.73;78.54;94214.50;5110560;28;20081;-74
2022/03/31 07:52:26;;;;;;;74.55;30.65;;;;;;;9.75;78.47;94214.91;5109748;28;20054;-73
2022/03/31 07:54:53;;;;;;;68.07;29.73;;;;;;;9.77;78.00;94215.34;5110801;28;20067;-75
2022/03/31 07:57:21;;;;;;;74.97;30.83;;;;;;;9.73;77.81;94214.50;5110119;28;20050;-73
2022/03/31 07:59:48;;;;;;;77.78;30.67;;;;;;;9.74;78.32;94216.06;5110783;28;20070;-74
2022/03/31 08:02:16;;;;;;;71.00;28.90;;;;;;;9.78;78.54;94208.75;5109226;28;20051;-73
2022/03/31 08:04:42;;;;;;;62.10;28.23;;;;;;;9.82;78.76;94206.88;5111009;28;20047;-73
2022/03/31 08:07:09;;;;;;;62.65;28.17;;;;;;;9.79;78.39;94202.16;5109568;28;20044;-74
2022/03/31 08:09:35;;;;;;;67.03;27.13;;;;;;;9.72;78.35;94204.78;5110230;28;20044;-73
2022/03/31 08:12:02;;;;;;;55.83;25.50;;;;;;;9.75;78.23;94206.75;5109670;28;20051;-73
2022/03/31 08:14:30;;;;;;;60.33;25.65;;;;;;;9.79;78.15;94208.38;5110278;28;20056;-73
2022/03/31 08:16:57;;;;;;;62.60;26.00;;;;;;;9.82;77.87;94204.16;5109706;28;20047;-74
2022/03/31 08:19:23;;;;;;;63.55;26.45;;;;;;;9.87;77.79;94193.75;5109573;28;20059;-74
2022/03/31 08:21:50;;;;;;;53.33;24.52;;;;;;;9.87;77.48;94193.75;5110461;28;20059;-75
2022/03/31 08:24:17;;;;;;;60.95;23.40;;;;;;;9.82;76.49;94196.00;5108998;28;20040;-73
2022/03/31 08:26:46;;;;;;;57.88;22.85;;;;;;;9.79;77.22;94188.56;5110531;28;20478;-73
2022/03/31 08:29:12;;;;;;;60.80;24.08;;;;;;;9.78;78.47;94189.72;5108935;28;20048;-73
2022/03/31 08:31:40;;;;;;;55.38;23.77;;;;;;;9.79;77.47;94185.84;5110268;28;20062;-73
2022/03/31 08:34:08;;;;;;;55.33;23.83;;;;;;;9.82;76.98;94190.56;5107828;28;20043;-73
2022/03/31 08:36:34;;;;;;;52.42;23.10;;;;;;;9.95;76.83;94194.63;5109970;28;20075;-74
2022/03/31 08:39:01;;;;;;;53.85;22.85;;;;;;;10.07;76.66;94188.19;5109471;28;20056;-73
2022/03/31 08:41:29;;;;;;;55.63;22.88;;;;;;;10.18;76.34;94187.22;5108970;28;20071;-74
2022/03/31 08:43:56;;;;;;;58.05;23.27;;;;;;;10.24;76.53;94190.44;5109562;28;20047;-74
2022/03/31 08:46:23;;;;;;;54.28;23.27;;;;;;;10.23;75.55;94193.47;5108372;28;20833;-74
2022/03/31 08:48:51;;;;;;;58.17;23.55;;;;;;;10.22;76.47;94189.19;5109875;28;20048;-74
2022/03/31 08:51:17;;;;;;;54.40;22.70;;;;;;;10.20;75.73;94195.78;5108373;28;20130;-73
2022/03/31 08:53:44;;;;;;;54.83;22.65;;;;;;;10.14;75.30;94191.03;5109769;28;20054;-75
2022/03/31 08:56:11;;;;;;;58.00;22.98;;;;;;;10.23;75.28;94188.03;5108413;28;20059;-74
2022/03/31 08:58:38;;;;;;;54.90;21.85;;;;;;;10.30;74.89;94193.59;5109867;28;20078;-74
2022/03/31 09:01:04;;;;;;;48.85;21.17;;;;;;;10.43;74.46;94197.66;5108538;28;20052;-73
2022/03/31 09:03:34;;;;;;;48.53;20.65;;;;;;;10.52;73.73;94194.66;5109423;28;20056;-74
2022/03/31 09:06:03;;;;;;;48.00;21.42;;;;;;;10.66;73.40;94187.47;5109183;28;20130;-74
2022/03/31 09:08:31;;;;;;;51.67;21.55;;;;;;;10.70;73.27;94190.19;5108908;28;20048;-77
2022/03/31 09:11:00;;;;;;;50.28;20.38;;;;;;;10.71;72.93;94181.69;5109165;28;20642;-73
2022/03/31 09:13:29;;;;;;;52.53;22.48;;;;;;;10.76;72.53;94185.25;5107802;28;20048;-73
2022/03/31 09:15:57;;;;;;;49.75;21.42;;;;;;;10.80;72.46;94183.31;5109373;28;20134;-73
2022/03/31 09:18:26;;;;;;;43.33;19.83;;;;;;;10.85;71.72;94186.50;5107404;28;20510;-74
2022/03/31 09:20:54;;;;;;;47.97;21.48;;;;;;;10.88;71.21;94182.25;5109032;28;20055;-74
2022/03/31 09:23:23;;;;;;;45.15;20.05;;;;;;;10.86;71.21;94182.63;5108390;28;20709;-74
2022/03/31 09:25:51;;;;;;;49.80;21.23;;;;;;;10.91;71.06;94178.75;5108428;28;20782;-74
2022/03/31 09:28:20;;;;;;;51.85;21.88;;;;;;;10.99;71.37;94180.41;5108397;28;20078;-74
2022/03/31 09:30:48;;;;;;;57.08;23.38;;;;;;;11.06;71.11;94175.03;5107796;28;20047;-74
2022/03/31 09:33:32;;;;;;;50.70;20.83;;;;;;;11.15;71.13;94172.81;5108539;28;20074;-74
2022/03/31 09:36:01;;;;;;;45.92;20.00;;;;;;;11.26;68.84;94166.69;5107999;28;20501;-74
2022/03/31 09:38:32;;;;;;;53.63;19.58;;;;;;;11.32;68.55;94165.16;5108811;28;20474;-74
2022/03/31 09:40:58;;;;;;;36.35;17.20;;;;;;;11.45;66.61;94167.25;5107653;28;20159;-74
2022/03/31 09:43:25;;;;;;;51.20;18.98;;;;;;;11.54;66.53;94171.56;5107724;28;20043;-74
2022/03/31 09:45:52;;;;;;;42.30;17.58;;;;;;;11.54;66.99;94171.56;5107733;28;20071;-73
2022/03/31 09:48:20;;;;;;;51.15;18.98;;;;;;;11.55;67.36;94173.94;5107224;28;20051;-74
2022/03/31 09:50:48;;;;;;;40.45;17.45;;;;;;;11.50;65.24;94171.56;5107834;28;20571;-74
2022/03/31 09:53:16;;;;;;;48.65;18.83;;;;;;;11.53;65.44;94172.75;5107559;28;20051;-74
2022/03/31 09:55:44;;;;;;;44.40;18.55;;;;;;;11.50;66.23;94166.91;5108855;28;20039;-74
2022/03/31 09:58:14;;;;;;;41.90;16.02;;;;;;;11.43;66.46;94171.50;5107174;28;20052;-74
2022/03/31 10:00:42;;;;;;;37.03;15.55;;;;;;;11.32;64.71;94165.16;5108563;28;20134;-73
2022/03/31 10:03:09;;;;;;;42.85;16.75;;;;;;;11.14;65.25;94165.00;5107977;28;20070;-76
2022/03/31 10:05:38;;;;;;;40.75;16.35;;;;;;;11.27;66.16;94168.22;5107655;28;20055;-75
2022/03/31 10:08:06;;;;;;;39.78;16.23;;;;;;;11.30;65.39;94167.50;5107223;28;20058;-75
2022/03/31 10:10:33;;;;;;;41.47;16.63;;;;;;;11.37;65.85;94171.06;5107391;28;20067;-73
2022/03/31 10:13:08;;;;;;;39.20;15.63;;;;;;;11.30;65.61;94167.50;5107933;28;20151;-73
2022/03/31 10:15:36;;;;;;;48.78;18.10;;;;;;;11.31;65.52;94166.34;5106919;28;20054;-73
2022/03/31 10:18:04;;;;;;;49.05;17.70;;;;;;;11.35;66.15;94164.44;5107334;28;20062;-74
2022/03/31 10:20:30;;;;;;;40.25;16.05;;;;;;;11.31;66.24;94163.59;5107088;28;20398;-74
2022/03/31 10:25:45;;;;;;;39.63;16.45;;;;;;;11.33;65.87;94158.56;5107423;28;20047;-74
2022/03/31 10:28:14;;;;;;;46.08;16.75;;;;;;;11.32;65.75;94159.72;5106808;28;20525;-74
2022/03/31 10:30:43;;;;;;;41.22;17.30;;;;;;;11.30;66.00;94146.47;5107779;28;20055;-75
2022/03/31 10:33:11;;;;;;;51.38;18.90;;;;;;;11.24;66.27;94151.50;5106402;28;20459;-74
2022/03/31 10:35:40;;;;;;;39.50;17.00;;;;;;;11.21;66.39;94154.94;5108049;28;20051;-74
2022/03/31 10:38:15;;;;;;;41.28;17.80;;;;;;;11.22;67.55;94156.53;5106233;28;20051;-75
2022/03/31 10:40:43;;;;;;;46.20;19.13;;;;;;;11.17;66.86;94156.06;5107640;28;20055;-74
2022/03/31 10:43:21;;;;;;;42.60;18.27;;;;;;;11.13;67.17;94153.34;5106365;28;20055;-74
2022/03/31 10:45:48;;;;;;;45.08;18.42;;;;;;;11.09;67.36;94149.78;5107482;28;20043;-74
2022/03/31 10:48:18;;;;;;;46.63;18.73;;;;;;;11.06;67.56;94153.25;5106709;28;20051;-75
2022/03/31 10:50:45;;;;;;;52.00;18.50;;;;;;;10.93;67.82;94141.84;5106367;28;20039;-75
2022/03/31 10:53:11;;;;;;;47.92;18.92;;;;;;;10.93;68.64;94139.13;5106738;28;20043;-75
2022/03/31 10:55:40;;;;;;;47.35;18.42;;;;;;;10.92;69.22;94136.78;5107815;28;20055;-74
2022/03/31 10:58:08;;;;;;;48.65;17.75;;;;;;;10.91;69.22;94133.28;5106004;28;20052;-74
2022/03/31 11:00:36;;;;;;;47.05;17.45;;;;;;;10.89;69.41;94132.09;5106245;28;20044;-74
2022/03/31 11:03:03;;;;;;;49.92;18.40;;;;;;;10.86;69.80;94127.41;5106758;28;20096;-74
2022/03/31 11:05:32;;;;;;;40.47;16.38;;;;;;;10.76;68.81;94128.06;5106769;28;20562;-74
2022/03/31 11:08:03;;;;;;;53.88;17.95;;;;;;;10.70;68.63;94117.53;5106926;28;20100;-74
2022/03/31 11:10:41;;;;;;;54.20;18.45;;;;;;;10.45;71.75;94124.63;5106271;28;20046;-74
2022/03/31 11:13:08;;;;;;;59.90;17.73;;;;;;;10.17;72.87;94123.06;5105817;28;20051;-74
2022/03/31 11:15:36;;;;;;;48.13;19.98;;;;;;;10.13;74.69;94113.31;5107160;28;20050;-74
2022/03/31 11:18:03;;;;;;;43.92;17.95;;;;;;;10.18;75.83;94113.78;5105894;28;20078;-74
2022/03/31 11:20:30;;;;;;;46.63;18.85;;;;;;;10.24;76.82;94118.94;5106684;28;20477;-73
2022/03/31 11:22:59;;;;;;;55.95;19.02;;;;;;;10.15;77.27;94111.78;5104870;28;20062;-74
2022/03/31 11:25:26;;;;;;;56.13;18.65;;;;;;;10.12;76.73;94107.06;5105263;28;20051;-74
2022/03/31 11:27:53;;;;;;;51.83;18.42;;;;;;;10.19;79.42;94111.84;5106460;28;20052;-74
2022/03/31 11:30:22;;;;;;;84.50;22.35;;;;;;;10.14;79.21;94110.22;5106057;28;20058;-75